createdAt,value
2023-04-11T00:04:38.396Z,98987.08
2023-04-11T00:09:39.530Z,98977.23
2023-04-11T00:14:44.592Z,98969.09
2023-04-11T00:19:45.872Z,98963.90
2023-04-11T00:24:46.836Z,98963.20
2023-04-11T00:29:47.815Z,98956.79
2023-04-11T00:34:49.216Z,98943.27
2023-04-11T00:39:52.254Z,98933.64
2023-04-11T00:44:53.193Z,98926.30
2023-04-11T00:49:54.201Z,98922.05
2023-04-11T00:54:55.473Z,98921.08
2023-04-11T00:59:57.665Z,98922.13
2023-04-11T01:05:00.049Z,98920.22
2023-04-11T01:10:02.276Z,98911.64
2023-04-11T01:15:05.131Z,98903.48
2023-04-11T01:20:08.158Z,98901.34
2023-04-11T01:25:09.642Z,98896.59
2023-04-11T01:30:11.971Z,98899.67
2023-04-11T01:35:13.335Z,98898.00
2023-04-11T01:40:17.306Z,98894.02
2023-04-11T01:45:20.275Z,98891.38
2023-04-11T01:50:21.953Z,98887.94
2023-04-11T01:55:22.996Z,98876.83
2023-04-11T02:00:24.053Z,98879.36
2023-04-11T02:05:25.555Z,98864.69
2023-04-11T02:10:26.573Z,98857.66
2023-04-11T02:15:27.817Z,98847.71
2023-04-11T02:20:29.047Z,98840.30
2023-04-11T02:25:33.033Z,98834.14
2023-04-11T02:30:34.082Z,98822.08
2023-04-11T02:35:35.385Z,98814.14
2023-04-11T02:40:36.491Z,98808.42
2023-04-11T02:45:37.582Z,98801.30
2023-04-11T02:50:40.206Z,98803.40
2023-04-11T02:55:42.732Z,98806.14
2023-04-11T03:00:44.259Z,98807.30
2023-04-11T03:05:46.333Z,98805.68
2023-04-11T03:10:47.734Z,98794.61
2023-04-11T03:15:49.103Z,98792.59
2023-04-11T03:20:51.704Z,98791.00
2023-04-11T03:25:53.429Z,98779.90
2023-04-11T03:30:54.772Z,98770.79
2023-04-11T03:35:57.604Z,98773.01
2023-04-11T03:40:59.142Z,98763.36
2023-04-11T03:46:00.492Z,98761.15
2023-04-11T03:51:10.048Z,98755.91
2023-04-11T03:56:15.273Z,98744.48
2023-04-11T04:01:16.294Z,98740.77
2023-04-11T04:06:17.572Z,98732.06
2023-04-11T04:11:20.832Z,98724.59
2023-04-11T04:16:21.994Z,98724.17
2023-04-11T04:21:31.838Z,98726.23
2023-04-11T04:26:33.362Z,98720.90
2023-04-11T04:31:52.270Z,98706.87
2023-04-11T04:36:58.837Z,98692.70
2023-04-11T04:42:07.233Z,98685.55
2023-04-11T04:47:12.108Z,98681.72
2023-04-11T04:52:14.066Z,98671.56
2023-04-11T04:57:15.723Z,98666.77
2023-04-11T05:02:18.022Z,98658.99
2023-04-11T05:07:20.183Z,98646.54
2023-04-11T05:12:26.523Z,98639.82
2023-04-11T05:17:31.233Z,98632.73
2023-04-11T05:22:32.761Z,98625.30
2023-04-11T05:27:34.554Z,98628.06
2023-04-11T05:32:36.180Z,98614.08
2023-04-11T05:37:37.721Z,98613.59
2023-04-11T05:42:38.750Z,98613.55
2023-04-11T05:47:43.652Z,98598.08
2023-04-11T05:52:45.354Z,98584.95
2023-04-11T05:57:46.405Z,98590.29
2023-04-11T06:02:48.418Z,98595.73
2023-04-11T06:07:50.380Z,98589.08
2023-04-11T06:12:51.892Z,98590.39
2023-04-11T06:17:53.632Z,98608.16
2023-04-11T06:22:54.813Z,98610.69
2023-04-11T06:27:55.823Z,98600.24
2023-04-11T06:32:57.999Z,98590.54
2023-04-11T06:37:59.077Z,98580.98
2023-04-11T06:43:01.133Z,98570.47
2023-04-11T06:48:02.170Z,98575.33
2023-04-11T06:53:03.184Z,98575.52
2023-04-11T06:58:04.132Z,98578.95
2023-04-11T07:03:07.801Z,98574.86
2023-04-11T07:08:09.090Z,98562.90
2023-04-11T07:13:10.177Z,98554.96
2023-04-11T07:18:11.520Z,98538.25
2023-04-11T07:23:12.613Z,98525.95
2023-04-11T07:28:13.790Z,98515.66
2023-04-11T07:33:14.999Z,98512.03
2023-04-11T07:38:26.386Z,98513.70
2023-04-11T07:43:28.289Z,98508.33
2023-04-11T07:48:31.012Z,98503.81
2023-04-11T07:53:32.501Z,98503.13
2023-04-11T07:58:33.430Z,98489.80
2023-04-11T08:03:34.541Z,98477.34
2023-04-11T08:08:35.814Z,98477.79
2023-04-11T08:13:36.904Z,98472.97
2023-04-11T08:18:41.302Z,98465.98
2023-04-11T08:23:42.721Z,98458.38
2023-04-11T08:28:44.057Z,98452.50
2023-04-11T08:33:45.016Z,98449.84
2023-04-11T08:38:45.991Z,98443.32
2023-04-11T08:43:47.786Z,98437.61
2023-04-11T08:48:49.320Z,98424.89
2023-04-11T08:53:53.216Z,98416.84
2023-04-11T08:58:54.292Z,98410.38
2023-04-11T09:03:55.788Z,98403.84
2023-04-11T09:09:04.551Z,98403.78
2023-04-11T09:14:12.595Z,98394.70
2023-04-11T09:19:24.557Z,98392.13
2023-04-11T09:24:26.852Z,98396.80
2023-04-11T09:29:39.889Z,98381.91
2023-04-11T09:34:42.618Z,98375.38
2023-04-11T09:39:43.912Z,98367.46
2023-04-11T09:44:44.888Z,98360.75
2023-04-11T09:49:46.614Z,98354.77
2023-04-11T09:54:50.464Z,98347.96
2023-04-11T09:59:53.427Z,98330.20
2023-04-11T10:04:59.758Z,98327.71
2023-04-11T10:10:01.572Z,98315.88
2023-04-11T10:15:09.600Z,98308.02
2023-04-11T10:20:37.230Z,98295.98
2023-04-11T10:25:52.904Z,98281.14
2023-04-11T10:31:04.646Z,98269.09
2023-04-11T10:36:10.940Z,98256.16
2023-04-11T10:41:33.293Z,98245.52
2023-04-11T10:46:43.822Z,98246.76
2023-04-11T10:51:45.877Z,98246.01
2023-04-11T10:56:54.096Z,98246.23
2023-04-11T11:01:55.451Z,98239.90
2023-04-11T11:06:57.786Z,98241.90
2023-04-11T11:12:09.891Z,98247.45
2023-04-11T11:17:12.442Z,98237.70
2023-04-11T11:22:18.054Z,98233.15
2023-04-11T11:27:23.842Z,98235.95
2023-04-11T11:32:29.303Z,98230.94
2023-04-11T11:37:30.728Z,98229.95
2023-04-11T11:42:31.755Z,98233.92
2023-04-11T11:47:43.736Z,98231.86
2023-04-11T11:52:44.937Z,98228.77
2023-04-11T11:57:47.147Z,98228.65
2023-04-11T12:02:51.937Z,98230.17
2023-04-11T12:07:54.206Z,98224.27
2023-04-11T12:12:55.257Z,98217.22
2023-04-11T12:17:56.947Z,98204.92
2023-04-11T12:22:57.933Z,98197.15
2023-04-11T12:27:58.898Z,98194.61
2023-04-11T12:33:00.331Z,98183.94
2023-04-11T12:38:01.271Z,98184.58
2023-04-11T12:43:02.256Z,98182.15
2023-04-11T12:48:03.279Z,98176.66
2023-04-11T12:53:04.628Z,98168.01
2023-04-11T12:58:07.538Z,98157.15
2023-04-11T13:03:10.504Z,98159.77
2023-04-11T13:08:12.019Z,98158.29
2023-04-11T13:18:18.224Z,98158.98
2023-04-11T13:23:20.223Z,98135.59
2023-04-11T13:28:21.161Z,98160.30
2023-04-11T13:33:22.144Z,98159.88
2023-04-11T13:38:24.843Z,98155.67
2023-04-11T13:43:26.149Z,98157.97
2023-04-11T13:48:27.397Z,98145.69
2023-04-11T13:53:28.423Z,98142.86
2023-04-11T13:58:30.140Z,98135.23
2023-04-11T14:03:32.816Z,98130.82
2023-04-11T14:08:34.012Z,98139.06
2023-04-11T14:13:34.972Z,98142.72
2023-04-11T14:18:35.986Z,98146.61
2023-04-11T14:23:37.204Z,98152.66
2023-04-11T14:28:38.390Z,98154.17
2023-04-11T14:33:40.504Z,98156.95
2023-04-11T14:38:41.502Z,98169.40
2023-04-11T14:43:42.422Z,98184.41
2023-04-11T14:48:43.495Z,98198.27
2023-04-11T14:53:49.549Z,98195.05
2023-04-11T14:58:51.499Z,98197.10
2023-04-11T15:03:53.615Z,98198.45
2023-04-11T15:08:55.309Z,98201.49
2023-04-11T15:13:56.807Z,98204.31
2023-04-11T15:18:57.946Z,98192.16
2023-04-11T15:23:58.913Z,98200.71
2023-04-11T15:29:00.034Z,98193.52
2023-04-11T15:34:03.267Z,98204.95
2023-04-11T15:39:04.866Z,98206.60
2023-04-11T15:44:06.036Z,98207.35
2023-04-11T15:49:07.230Z,98209.78
2023-04-11T15:54:08.445Z,98221.42
2023-04-11T15:59:12.235Z,98213.92
2023-04-11T16:04:13.169Z,98215.00
2023-04-11T16:09:14.651Z,98212.63
2023-04-11T16:14:15.670Z,98198.33
2023-04-11T16:19:16.587Z,98191.67
2023-04-11T16:24:18.239Z,98201.05
2023-04-11T16:29:19.253Z,98212.81
2023-04-11T16:34:20.851Z,98203.42
2023-04-11T16:39:23.009Z,98224.53
2023-04-11T16:44:24.153Z,98223.49
2023-04-11T16:49:25.202Z,98224.52
2023-04-11T16:54:26.281Z,98229.45
2023-04-11T16:59:27.582Z,98232.30
2023-04-11T17:04:28.899Z,98236.02
2023-04-11T17:09:30.075Z,98235.15
2023-04-11T17:14:33.253Z,98238.19
2023-04-11T17:19:34.208Z,98247.16
2023-04-11T17:24:35.326Z,98250.48
2023-04-11T17:29:38.797Z,98249.70
2023-04-11T17:34:39.959Z,98254.18
2023-04-11T17:39:43.298Z,98252.55
2023-04-11T17:44:44.308Z,98255.72
2023-04-11T17:49:45.395Z,98263.67
2023-04-11T17:54:46.319Z,98274.52
2023-04-11T17:59:47.595Z,98290.62
2023-04-11T18:04:48.636Z,98298.21
2023-04-11T18:09:50.579Z,98301.42
2023-04-11T18:14:53.419Z,98301.05
2023-04-11T18:19:54.637Z,98308.52
2023-04-11T18:24:56.206Z,98317.52
2023-04-11T18:29:59.898Z,98321.91
2023-04-11T18:35:06.596Z,98327.16
2023-04-11T18:40:11.193Z,98342.58
2023-04-11T18:45:13.262Z,98349.71
2023-04-11T18:50:16.605Z,98348.89
2023-04-11T18:55:17.602Z,98343.64
2023-04-11T19:00:19.745Z,98347.42
2023-04-11T19:05:22.751Z,98340.63
2023-04-11T19:10:24.065Z,98348.29
2023-04-11T19:15:25.758Z,98343.89
2023-04-11T19:20:28.771Z,98340.02
2023-04-11T19:25:32.564Z,98340.54
2023-04-11T19:30:34.924Z,98321.98
2023-04-11T19:35:39.637Z,98334.72
2023-04-11T19:40:41.618Z,98341.84
2023-04-11T19:45:43.564Z,98345.02
2023-04-11T19:50:44.784Z,98352.23
2023-04-11T19:55:52.909Z,98351.81
2023-04-11T20:00:55.136Z,98356.67
2023-04-11T20:05:56.645Z,98359.34
2023-04-11T20:10:57.602Z,98364.91
2023-04-11T20:15:58.854Z,98361.81
2023-04-11T20:21:02.663Z,98364.45
2023-04-11T20:26:03.714Z,98368.08
2023-04-11T20:31:06.261Z,98375.34
2023-04-11T20:36:08.382Z,98372.02
2023-04-11T20:41:09.524Z,98371.73
2023-04-11T20:46:12.734Z,98370.20
2023-04-11T20:51:16.920Z,98371.63
2023-04-11T20:56:17.930Z,98373.44
2023-04-11T21:01:18.918Z,98370.11
2023-04-11T21:06:19.845Z,98364.45
2023-04-11T21:11:21.789Z,98370.36
2023-04-11T21:16:22.919Z,98367.97
2023-04-11T21:21:24.191Z,98369.95
2023-04-11T21:26:26.736Z,98374.63
2023-04-11T21:31:27.795Z,98366.90
2023-04-11T21:36:28.913Z,98365.81
2023-04-11T21:41:30.682Z,98369.49
2023-04-11T21:46:32.544Z,98376.42
2023-04-11T21:51:38.168Z,98380.52
2023-04-11T21:56:42.834Z,98384.11
2023-04-11T22:01:43.945Z,98383.95
2023-04-11T22:06:46.067Z,98388.21
2023-04-11T22:11:47.016Z,98385.42
2023-04-11T22:16:50.918Z,98391.23
2023-04-11T22:21:55.060Z,98387.89
2023-04-11T22:27:03.605Z,98389.99
2023-04-11T22:32:05.440Z,98390.57
2023-04-11T22:37:06.826Z,98393.16
2023-04-11T22:42:07.883Z,98391.54
2023-04-11T22:47:15.308Z,98391.79
2023-04-11T22:52:21.985Z,98394.33
2023-04-11T22:57:22.990Z,98389.57
2023-04-11T23:02:24.564Z,98384.64
2023-04-11T23:07:27.753Z,98385.52
2023-04-11T23:12:47.142Z,98384.58
2023-04-11T23:17:52.530Z,98379.36
2023-04-11T23:22:53.566Z,98381.83
2023-04-11T23:27:54.571Z,98377.63
2023-04-11T23:32:55.784Z,98379.17
2023-04-11T23:37:59.292Z,98382.95
2023-04-11T23:43:00.771Z,98377.65
2023-04-11T23:48:04.311Z,98382.40
2023-04-11T23:53:07.571Z,98376.44
2023-04-11T23:58:09.065Z,98377.30
